sensor_id;sensor_type;location;lat;lon;timestamp;temperature;humidity
63260;DHT22;49390;51.380;0.098;2022-12-18T00:00:25;1.60;99.90
63260;DHT22;49390;51.380;0.098;2022-12-18T00:03:14;1.60;99.90
63260;DHT22;49390;51.380;0.098;2022-12-18T00:05:48;1.60;99.90
63260;DHT22;49390;51.380;0.098;2022-12-18T00:08:17;1.60;99.90
63260;DHT22;49390;51.380;0.098;2022-12-18T00:10:46;1.60;99.90
63260;DHT22;49390;51.380;0.098;2022-12-18T00:13:15;1.60;99.90
63260;DHT22;49390;51.380;0.098;2022-12-18T00:15:43;1.60;99.90
63260;DHT22;49390;51.380;0.098;2022-12-18T00:18:11;1.60;99.90
63260;DHT22;49390;51.380;0.098;2022-12-18T00:20:48;1.60;99.90
63260;DHT22;49390;51.380;0.098;2022-12-18T00:23:21;1.60;99.90
63260;DHT22;49390;51.380;0.098;2022-12-18T00:25:49;1.60;99.90
63260;DHT22;49390;51.380;0.098;2022-12-18T00:28:18;1.60;99.90
63260;DHT22;49390;51.380;0.098;2022-12-18T00:30:47;1.60;99.90
63260;DHT22;49390;51.380;0.098;2022-12-18T00:33:18;1.70;99.90
63260;DHT22;49390;51.380;0.098;2022-12-18T00:35:46;1.60;99.90
63260;DHT22;49390;51.380;0.098;2022-12-18T00:38:14;1.60;99.90
63260;DHT22;49390;51.380;0.098;2022-12-18T00:40:44;1.60;99.90
63260;DHT22;49390;51.380;0.098;2022-12-18T00:43:12;1.60;99.90
63260;DHT22;49390;51.380;0.098;2022-12-18T00:45:43;1.60;99.90
63260;DHT22;49390;51.380;0.098;2022-12-18T00:48:11;1.60;99.90
63260;DHT22;49390;51.380;0.098;2022-12-18T00:50:40;1.60;99.90
63260;DHT22;49390;51.380;0.098;2022-12-18T00:53:12;1.60;99.90
63260;DHT22;49390;51.380;0.098;2022-12-18T00:55:41;1.60;99.90
63260;DHT22;49390;51.380;0.098;2022-12-18T00:58:15;1.60;99.90
63260;DHT22;49390;51.380;0.098;2022-12-18T01:00:44;1.50;99.90
63260;DHT22;49390;51.380;0.098;2022-12-18T01:03:13;1.50;99.90
63260;DHT22;49390;51.380;0.098;2022-12-18T01:05:44;1.50;99.90
63260;DHT22;49390;51.380;0.098;2022-12-18T01:08:12;1.50;99.90
63260;DHT22;49390;51.380;0.098;2022-12-18T01:10:43;1.50;99.90
63260;DHT22;49390;51.380;0.098;2022-12-18T01:13:12;1.50;99.90
63260;DHT22;49390;51.380;0.098;2022-12-18T01:15:48;1.40;99.90
63260;DHT22;49390;51.380;0.098;2022-12-18T01:18:17;1.50;99.90
63260;DHT22;49390;51.380;0.098;2022-12-18T01:20:48;1.50;99.90
63260;DHT22;49390;51.380;0.098;2022-12-18T01:23:16;1.40;99.90
63260;DHT22;49390;51.380;0.098;2022-12-18T01:25:44;1.30;99.90
63260;DHT22;49390;51.380;0.098;2022-12-18T01:28:14;1.30;99.90
63260;DHT22;49390;51.380;0.098;2022-12-18T01:30:43;1.20;99.90
63260;DHT22;49390;51.380;0.098;2022-12-18T01:33:11;1.20;99.90
63260;DHT22;49390;51.380;0.098;2022-12-18T01:35:43;1.10;99.90
63260;DHT22;49390;51.380;0.098;2022-12-18T01:38:12;1.10;99.90
63260;DHT22;49390;51.380;0.098;2022-12-18T01:40:41;1.00;99.90
63260;DHT22;49390;51.380;0.098;2022-12-18T01:43:10;0.90;99.90
63260;DHT22;49390;51.380;0.098;2022-12-18T01:45:39;0.90;99.90
63260;DHT22;49390;51.380;0.098;2022-12-18T01:48:08;0.80;99.90
63260;DHT22;49390;51.380;0.098;2022-12-18T01:50:41;0.80;99.90
63260;DHT22;49390;51.380;0.098;2022-12-18T01:53:15;0.80;99.90
63260;DHT22;49390;51.380;0.098;2022-12-18T01:55:55;0.70;99.90
63260;DHT22;49390;51.380;0.098;2022-12-18T02:01:01;0.70;99.90
63260;DHT22;49390;51.380;0.098;2022-12-18T02:03:32;0.80;99.90
63260;DHT22;49390;51.380;0.098;2022-12-18T02:06:10;0.70;99.90
63260;DHT22;49390;51.380;0.098;2022-12-18T02:08:50;0.80;99.90
63260;DHT22;49390;51.380;0.098;2022-12-18T02:14:28;0.80;99.90
63260;DHT22;49390;51.380;0.098;2022-12-18T02:17:11;0.80;99.90
63260;DHT22;49390;51.380;0.098;2022-12-18T02:19:58;0.80;99.90
63260;DHT22;49390;51.380;0.098;2022-12-18T02:27:59;0.80;99.90
63260;DHT22;49390;51.380;0.098;2022-12-18T02:30:31;0.80;99.90
63260;DHT22;49390;51.380;0.098;2022-12-18T02:33:03;0.80;99.90
63260;DHT22;49390;51.380;0.098;2022-12-18T02:35:33;0.80;99.90
63260;DHT22;49390;51.380;0.098;2022-12-18T02:38:03;0.80;99.90
63260;DHT22;49390;51.380;0.098;2022-12-18T02:40:36;0.80;99.90
63260;DHT22;49390;51.380;0.098;2022-12-18T02:43:11;0.80;99.90
63260;DHT22;49390;51.380;0.098;2022-12-18T02:45:54;0.80;99.90
63260;DHT22;49390;51.380;0.098;2022-12-18T02:48:30;0.70;99.90
63260;DHT22;49390;51.380;0.098;2022-12-18T02:51:18;0.70;99.90
63260;DHT22;49390;51.380;0.098;2022-12-18T02:54:03;0.60;99.90
63260;DHT22;49390;51.380;0.098;2022-12-18T02:56:50;0.60;99.90
63260;DHT22;49390;51.380;0.098;2022-12-18T02:59:34;0.60;99.90
63260;DHT22;49390;51.380;0.098;2022-12-18T03:02:10;0.50;99.90
63260;DHT22;49390;51.380;0.098;2022-12-18T03:04:51;0.50;99.90
63260;DHT22;49390;51.380;0.098;2022-12-18T03:07:33;0.50;99.90
63260;DHT22;49390;51.380;0.098;2022-12-18T03:10:05;0.50;99.90
63260;DHT22;49390;51.380;0.098;2022-12-18T03:12:42;0.40;99.90
63260;DHT22;49390;51.380;0.098;2022-12-18T03:15:28;0.40;99.90
63260;DHT22;49390;51.380;0.098;2022-12-18T03:18:30;0.40;99.90
63260;DHT22;49390;51.380;0.098;2022-12-18T03:21:05;0.40;99.90
63260;DHT22;49390;51.380;0.098;2022-12-18T03:23:45;0.40;99.90
63260;DHT22;49390;51.380;0.098;2022-12-18T03:26:23;0.40;99.90
63260;DHT22;49390;51.380;0.098;2022-12-18T03:29:12;0.30;99.90
63260;DHT22;49390;51.380;0.098;2022-12-18T03:31:49;0.30;99.90
63260;DHT22;49390;51.380;0.098;2022-12-18T03:34:30;0.30;99.90
63260;DHT22;49390;51.380;0.098;2022-12-18T03:37:02;0.30;99.90
63260;DHT22;49390;51.380;0.098;2022-12-18T03:39:33;0.30;99.90
63260;DHT22;49390;51.380;0.098;2022-12-18T03:42:20;0.30;99.90
63260;DHT22;49390;51.380;0.098;2022-12-18T03:48:00;0.30;99.90
63260;DHT22;49390;51.380;0.098;2022-12-18T03:50:56;0.30;99.90
63260;DHT22;49390;51.380;0.098;2022-12-18T03:56:11;0.30;99.90
63260;DHT22;49390;51.380;0.098;2022-12-18T03:58:43;0.30;99.90
63260;DHT22;49390;51.380;0.098;2022-12-18T04:01:29;0.30;99.90
63260;DHT22;49390;51.380;0.098;2022-12-18T04:04:01;0.30;99.90
63260;DHT22;49390;51.380;0.098;2022-12-18T04:06:34;0.30;99.90
63260;DHT22;49390;51.380;0.098;2022-12-18T04:09:04;0.40;99.90
63260;DHT22;49390;51.380;0.098;2022-12-18T04:11:37;0.40;99.90
63260;DHT22;49390;51.380;0.098;2022-12-18T04:14:06;0.30;99.90
63260;DHT22;49390;51.380;0.098;2022-12-18T04:16:38;0.40;99.90
63260;DHT22;49390;51.380;0.098;2022-12-18T04:19:10;0.40;99.90
63260;DHT22;49390;51.380;0.098;2022-12-18T04:21:42;0.40;99.90
63260;DHT22;49390;51.380;0.098;2022-12-18T04:24:12;0.30;99.90
63260;DHT22;49390;51.380;0.098;2022-12-18T04:26:46;0.30;99.90
63260;DHT22;49390;51.380;0.098;2022-12-18T04:29:17;0.40;99.90
63260;DHT22;49390;51.380;0.098;2022-12-18T04:31:46;0.40;99.90
63260;DHT22;49390;51.380;0.098;2022-12-18T04:34:14;0.40;99.90
63260;DHT22;49390;51.380;0.098;2022-12-18T04:36:48;0.50;99.90
63260;DHT22;49390;51.380;0.098;2022-12-18T04:39:17;0.50;99.90
63260;DHT22;49390;51.380;0.098;2022-12-18T04:41:48;0.50;99.90
63260;DHT22;49390;51.380;0.098;2022-12-18T04:44:16;0.50;99.90
63260;DHT22;49390;51.380;0.098;2022-12-18T04:46:45;0.50;99.90
63260;DHT22;49390;51.380;0.098;2022-12-18T04:49:13;0.60;99.90
63260;DHT22;49390;51.380;0.098;2022-12-18T04:51:42;0.60;99.90
63260;DHT22;49390;51.380;0.098;2022-12-18T04:54:10;0.60;99.90
63260;DHT22;49390;51.380;0.098;2022-12-18T04:56:38;0.60;99.90
63260;DHT22;49390;51.380;0.098;2022-12-18T04:59:07;0.70;99.90
63260;DHT22;49390;51.380;0.098;2022-12-18T05:01:35;0.60;99.90
63260;DHT22;49390;51.380;0.098;2022-12-18T05:04:03;0.70;99.90
63260;DHT22;49390;51.380;0.098;2022-12-18T05:06:33;0.80;99.90
63260;DHT22;49390;51.380;0.098;2022-12-18T05:09:01;0.80;99.90
63260;DHT22;49390;51.380;0.098;2022-12-18T05:11:29;0.90;99.90
63260;DHT22;49390;51.380;0.098;2022-12-18T05:13:58;0.90;99.90
63260;DHT22;49390;51.380;0.098;2022-12-18T05:16:26;0.90;99.90
63260;DHT22;49390;51.380;0.098;2022-12-18T05:18:55;1.00;99.90
63260;DHT22;49390;51.380;0.098;2022-12-18T05:21:22;1.00;99.90
63260;DHT22;49390;51.380;0.098;2022-12-18T05:23:51;1.00;99.90
63260;DHT22;49390;51.380;0.098;2022-12-18T05:26:19;1.00;99.90
63260;DHT22;49390;51.380;0.098;2022-12-18T05:28:48;1.10;99.90
63260;DHT22;49390;51.380;0.098;2022-12-18T05:31:16;1.10;99.90
63260;DHT22;49390;51.380;0.098;2022-12-18T05:33:45;1.10;99.90
63260;DHT22;49390;51.380;0.098;2022-12-18T05:36:12;1.10;99.90
63260;DHT22;49390;51.380;0.098;2022-12-18T05:38:41;1.10;99.90
63260;DHT22;49390;51.380;0.098;2022-12-18T05:41:09;1.10;99.90
63260;DHT22;49390;51.380;0.098;2022-12-18T05:43:40;1.20;99.90
63260;DHT22;49390;51.380;0.098;2022-12-18T05:46:12;1.10;99.90
63260;DHT22;49390;51.380;0.098;2022-12-18T05:48:43;1.20;99.90
63260;DHT22;49390;51.380;0.098;2022-12-18T05:51:13;1.20;99.90
63260;DHT22;49390;51.380;0.098;2022-12-18T05:53:42;1.20;99.90
63260;DHT22;49390;51.380;0.098;2022-12-18T05:56:13;1.20;99.90
63260;DHT22;49390;51.380;0.098;2022-12-18T05:58:43;1.20;99.90
63260;DHT22;49390;51.380;0.098;2022-12-18T06:01:16;1.20;99.90
63260;DHT22;49390;51.380;0.098;2022-12-18T06:03:45;1.30;99.90
63260;DHT22;49390;51.380;0.098;2022-12-18T06:08:47;1.30;99.90
63260;DHT22;49390;51.380;0.098;2022-12-18T06:11:25;1.30;99.90
63260;DHT22;49390;51.380;0.098;2022-12-18T06:13:55;1.30;99.90
63260;DHT22;49390;51.380;0.098;2022-12-18T06:16:26;1.30;99.90
63260;DHT22;49390;51.380;0.098;2022-12-18T06:18:59;1.40;99.90
63260;DHT22;49390;51.380;0.098;2022-12-18T06:21:28;1.30;99.90
63260;DHT22;49390;51.380;0.098;2022-12-18T06:23:57;1.40;99.90
63260;DHT22;49390;51.380;0.098;2022-12-18T06:26:26;1.30;99.90
63260;DHT22;49390;51.380;0.098;2022-12-18T06:28:58;1.40;99.90
63260;DHT22;49390;51.380;0.098;2022-12-18T06:31:28;1.40;99.90
63260;DHT22;49390;51.380;0.098;2022-12-18T06:33:57;1.40;99.90
63260;DHT22;49390;51.380;0.098;2022-12-18T06:36:25;1.40;99.90
63260;DHT22;49390;51.380;0.098;2022-12-18T06:38:54;1.40;99.90
63260;DHT22;49390;51.380;0.098;2022-12-18T06:41:22;1.40;99.90
63260;DHT22;49390;51.380;0.098;2022-12-18T06:43:50;1.40;99.90
63260;DHT22;49390;51.380;0.098;2022-12-18T06:46:24;1.40;99.90
63260;DHT22;49390;51.380;0.098;2022-12-18T06:48:53;1.40;99.90
63260;DHT22;49390;51.380;0.098;2022-12-18T06:51:24;1.50;99.90
63260;DHT22;49390;51.380;0.098;2022-12-18T06:53:52;1.50;99.90
63260;DHT22;49390;51.380;0.098;2022-12-18T06:56:19;1.40;99.90
63260;DHT22;49390;51.380;0.098;2022-12-18T06:58:51;1.50;99.90
63260;DHT22;49390;51.380;0.098;2022-12-18T07:01:19;1.50;99.90
63260;DHT22;49390;51.380;0.098;2022-12-18T07:03:52;1.50;99.90
63260;DHT22;49390;51.380;0.098;2022-12-18T07:06:23;1.50;99.90
63260;DHT22;49390;51.380;0.098;2022-12-18T07:08:53;1.60;99.90
63260;DHT22;49390;51.380;0.098;2022-12-18T07:11:22;1.60;99.90
63260;DHT22;49390;51.380;0.098;2022-12-18T07:13:50;1.60;99.90
63260;DHT22;49390;51.380;0.098;2022-12-18T07:16:20;1.60;99.90
63260;DHT22;49390;51.380;0.098;2022-12-18T07:18:54;1.70;99.90
63260;DHT22;49390;51.380;0.098;2022-12-18T07:21:23;1.60;99.90
63260;DHT22;49390;51.380;0.098;2022-12-18T07:23:52;1.70;99.90
63260;DHT22;49390;51.380;0.098;2022-12-18T07:26:20;1.70;99.90
63260;DHT22;49390;51.380;0.098;2022-12-18T07:28:56;1.70;99.90
63260;DHT22;49390;51.380;0.098;2022-12-18T07:31:26;1.70;99.90
63260;DHT22;49390;51.380;0.098;2022-12-18T07:33:55;1.70;99.90
63260;DHT22;49390;51.380;0.098;2022-12-18T07:36:23;1.70;99.90
63260;DHT22;49390;51.380;0.098;2022-12-18T07:38:51;1.70;99.90
63260;DHT22;49390;51.380;0.098;2022-12-18T07:41:20;1.70;99.90
63260;DHT22;49390;51.380;0.098;2022-12-18T07:43:48;1.70;99.90
63260;DHT22;49390;51.380;0.098;2022-12-18T07:46:16;1.80;99.90
63260;DHT22;49390;51.380;0.098;2022-12-18T07:48:45;1.80;99.90
63260;DHT22;49390;51.380;0.098;2022-12-18T07:51:18;1.80;99.90
63260;DHT22;49390;51.380;0.098;2022-12-18T07:53:47;1.80;99.90
63260;DHT22;49390;51.380;0.098;2022-12-18T07:56:20;1.80;99.90
63260;DHT22;49390;51.380;0.098;2022-12-18T07:58:58;1.90;99.90
63260;DHT22;49390;51.380;0.098;2022-12-18T08:01:27;1.80;99.90
63260;DHT22;49390;51.380;0.098;2022-12-18T08:03:57;1.80;99.90
63260;DHT22;49390;51.380;0.098;2022-12-18T08:06:25;1.80;99.90
63260;DHT22;49390;51.380;0.098;2022-12-18T08:08:56;1.80;99.90
63260;DHT22;49390;51.380;0.098;2022-12-18T08:11:26;1.70;99.90
63260;DHT22;49390;51.380;0.098;2022-12-18T08:13:55;1.80;99.90
63260;DHT22;49390;51.380;0.098;2022-12-18T08:16:23;1.80;99.90
63260;DHT22;49390;51.380;0.098;2022-12-18T08:18:52;1.80;99.90
63260;DHT22;49390;51.380;0.098;2022-12-18T08:21:23;1.80;99.90
63260;DHT22;49390;51.380;0.098;2022-12-18T08:23:54;1.80;99.90
63260;DHT22;49390;51.380;0.098;2022-12-18T08:26:24;1.80;99.90
63260;DHT22;49390;51.380;0.098;2022-12-18T08:28:54;1.90;99.90
63260;DHT22;49390;51.380;0.098;2022-12-18T08:31:26;1.90;99.90
63260;DHT22;49390;51.380;0.098;2022-12-18T08:33:56;1.90;99.90
63260;DHT22;49390;51.380;0.098;2022-12-18T08:36:24;1.90;99.90
63260;DHT22;49390;51.380;0.098;2022-12-18T08:38:53;2.00;99.90
63260;DHT22;49390;51.380;0.098;2022-12-18T08:41:21;2.10;99.90
63260;DHT22;49390;51.380;0.098;2022-12-18T08:43:50;2.10;99.90
63260;DHT22;49390;51.380;0.098;2022-12-18T08:46:39;2.10;99.90
63260;DHT22;49390;51.380;0.098;2022-12-18T08:49:09;2.20;99.90
63260;DHT22;49390;51.380;0.098;2022-12-18T08:51:38;2.20;99.90
63260;DHT22;49390;51.380;0.098;2022-12-18T08:54:12;2.20;99.90
63260;DHT22;49390;51.380;0.098;2022-12-18T08:56:41;2.30;99.90
63260;DHT22;49390;51.380;0.098;2022-12-18T08:59:09;2.30;99.90
63260;DHT22;49390;51.380;0.098;2022-12-18T09:01:46;2.20;99.90
63260;DHT22;49390;51.380;0.098;2022-12-18T09:04:15;2.30;99.90
63260;DHT22;49390;51.380;0.098;2022-12-18T09:06:44;2.40;99.90
63260;DHT22;49390;51.380;0.098;2022-12-18T09:09:13;2.40;99.90
63260;DHT22;49390;51.380;0.098;2022-12-18T09:11:42;2.40;99.90
63260;DHT22;49390;51.380;0.098;2022-12-18T09:14:11;2.50;99.90
63260;DHT22;49390;51.380;0.098;2022-12-18T09:16:39;2.50;99.90
63260;DHT22;49390;51.380;0.098;2022-12-18T09:19:07;2.50;99.90
63260;DHT22;49390;51.380;0.098;2022-12-18T09:21:38;2.50;99.90
63260;DHT22;49390;51.380;0.098;2022-12-18T09:24:13;2.50;99.90
63260;DHT22;49390;51.380;0.098;2022-12-18T09:26:42;2.50;99.90
63260;DHT22;49390;51.380;0.098;2022-12-18T09:29:15;2.40;99.90
63260;DHT22;49390;51.380;0.098;2022-12-18T09:31:45;2.50;99.90
63260;DHT22;49390;51.380;0.098;2022-12-18T09:34:14;2.40;99.90
63260;DHT22;49390;51.380;0.098;2022-12-18T09:36:45;2.40;99.90
63260;DHT22;49390;51.380;0.098;2022-12-18T09:39:13;2.50;99.90
63260;DHT22;49390;51.380;0.098;2022-12-18T09:41:54;2.50;99.90
63260;DHT22;49390;51.380;0.098;2022-12-18T09:44:41;2.50;99.90
63260;DHT22;49390;51.380;0.098;2022-12-18T09:50:04;2.60;99.90
63260;DHT22;49390;51.380;0.098;2022-12-18T09:52:45;2.60;99.90
63260;DHT22;49390;51.380;0.098;2022-12-18T09:55:25;2.60;99.90
63260;DHT22;49390;51.380;0.098;2022-12-18T10:00:37;2.80;99.90
63260;DHT22;49390;51.380;0.098;2022-12-18T10:03:13;2.80;99.90
63260;DHT22;49390;51.380;0.098;2022-12-18T10:06:14;2.70;99.90
63260;DHT22;49390;51.380;0.098;2022-12-18T10:14:32;2.80;99.90
63260;DHT22;49390;51.380;0.098;2022-12-18T10:20:18;3.00;99.90
63260;DHT22;49390;51.380;0.098;2022-12-18T10:28:13;3.00;99.90
63260;DHT22;49390;51.380;0.098;2022-12-18T10:30:42;3.00;99.90
63260;DHT22;49390;51.380;0.098;2022-12-18T10:33:20;3.10;99.90
63260;DHT22;49390;51.380;0.098;2022-12-18T10:35:50;3.00;99.90
63260;DHT22;49390;51.380;0.098;2022-12-18T10:41:03;3.10;99.90
63260;DHT22;49390;51.380;0.098;2022-12-18T10:43:36;3.20;99.90
63260;DHT22;49390;51.380;0.098;2022-12-18T10:46:13;3.20;99.90
63260;DHT22;49390;51.380;0.098;2022-12-18T10:54:20;3.30;99.90
63260;DHT22;49390;51.380;0.098;2022-12-18T10:56:49;3.30;99.90
63260;DHT22;49390;51.380;0.098;2022-12-18T10:59:17;3.40;99.90
63260;DHT22;49390;51.380;0.098;2022-12-18T11:01:49;3.40;99.90
63260;DHT22;49390;51.380;0.098;2022-12-18T11:04:29;3.40;99.90
63260;DHT22;49390;51.380;0.098;2022-12-18T11:07:04;3.40;99.90
63260;DHT22;49390;51.380;0.098;2022-12-18T11:09:33;3.40;99.90
63260;DHT22;49390;51.380;0.098;2022-12-18T11:12:15;3.40;99.90
63260;DHT22;49390;51.380;0.098;2022-12-18T11:14:49;3.50;99.90
63260;DHT22;49390;51.380;0.098;2022-12-18T11:17:29;3.50;99.90
63260;DHT22;49390;51.380;0.098;2022-12-18T11:20:01;3.50;99.90
63260;DHT22;49390;51.380;0.098;2022-12-18T11:22:31;3.60;99.90
63260;DHT22;49390;51.380;0.098;2022-12-18T11:25:02;3.60;99.90
63260;DHT22;49390;51.380;0.098;2022-12-18T11:27:58;3.60;99.90
63260;DHT22;49390;51.380;0.098;2022-12-18T11:30:37;3.60;99.90
63260;DHT22;49390;51.380;0.098;2022-12-18T11:33:13;3.70;99.90
63260;DHT22;49390;51.380;0.098;2022-12-18T11:35:55;3.70;99.90
63260;DHT22;49390;51.380;0.098;2022-12-18T11:38:37;3.70;99.90
63260;DHT22;49390;51.380;0.098;2022-12-18T11:44:29;3.80;99.90
63260;DHT22;49390;51.380;0.098;2022-12-18T11:47:04;3.80;99.90
63260;DHT22;49390;51.380;0.098;2022-12-18T11:49:38;3.80;99.90
63260;DHT22;49390;51.380;0.098;2022-12-18T11:52:28;3.80;99.90
63260;DHT22;49390;51.380;0.098;2022-12-18T11:55:01;3.80;99.90
63260;DHT22;49390;51.380;0.098;2022-12-18T11:57:52;3.80;99.90
63260;DHT22;49390;51.380;0.098;2022-12-18T12:00:23;3.70;99.90
63260;DHT22;49390;51.380;0.098;2022-12-18T12:03:22;3.70;99.90
63260;DHT22;49390;51.380;0.098;2022-12-18T12:17:30;3.70;99.90
63260;DHT22;49390;51.380;0.098;2022-12-18T12:20:22;3.70;99.90
63260;DHT22;49390;51.380;0.098;2022-12-18T12:23:24;3.60;99.90
63260;DHT22;49390;51.380;0.098;2022-12-18T12:26:33;3.70;99.90
63260;DHT22;49390;51.380;0.098;2022-12-18T12:29:26;3.70;99.90
63260;DHT22;49390;51.380;0.098;2022-12-18T12:34:52;3.60;99.90
63260;DHT22;49390;51.380;0.098;2022-12-18T12:40:01;3.60;99.90
63260;DHT22;49390;51.380;0.098;2022-12-18T12:42:56;3.60;99.90
63260;DHT22;49390;51.380;0.098;2022-12-18T12:45:57;3.70;99.90
63260;DHT22;49390;51.380;0.098;2022-12-18T12:51:24;3.70;99.90
63260;DHT22;49390;51.380;0.098;2022-12-18T12:53:54;3.70;99.90
63260;DHT22;49390;51.380;0.098;2022-12-18T12:56:31;3.70;99.90
63260;DHT22;49390;51.380;0.098;2022-12-18T12:59:25;3.70;99.90
63260;DHT22;49390;51.380;0.098;2022-12-18T13:02:05;3.70;99.90
63260;DHT22;49390;51.380;0.098;2022-12-18T13:07:39;3.70;99.90
63260;DHT22;49390;51.380;0.098;2022-12-18T13:25:56;3.60;99.90
63260;DHT22;49390;51.380;0.098;2022-12-18T13:36:56;3.60;99.90
63260;DHT22;49390;51.380;0.098;2022-12-18T13:39:33;3.70;99.90
63260;DHT22;49390;51.380;0.098;2022-12-18T13:44:40;3.60;99.90
63260;DHT22;49390;51.380;0.098;2022-12-18T13:47:36;3.60;99.90
63260;DHT22;49390;51.380;0.098;2022-12-18T13:50:23;3.60;99.90
63260;DHT22;49390;51.380;0.098;2022-12-18T13:52:59;3.70;99.90
63260;DHT22;49390;51.380;0.098;2022-12-18T13:55:27;3.70;99.90
63260;DHT22;49390;51.380;0.098;2022-12-18T13:58:06;3.70;99.90
63260;DHT22;49390;51.380;0.098;2022-12-18T14:00:41;3.70;99.90
63260;DHT22;49390;51.380;0.098;2022-12-18T14:03:22;3.70;99.90
63260;DHT22;49390;51.380;0.098;2022-12-18T14:06:03;3.70;99.90
63260;DHT22;49390;51.380;0.098;2022-12-18T14:08:39;3.70;99.90
63260;DHT22;49390;51.380;0.098;2022-12-18T14:11:20;3.70;99.90
63260;DHT22;49390;51.380;0.098;2022-12-18T14:13:50;3.70;99.90
63260;DHT22;49390;51.380;0.098;2022-12-18T14:16:18;3.70;99.90
63260;DHT22;49390;51.380;0.098;2022-12-18T14:18:57;3.70;99.90
63260;DHT22;49390;51.380;0.098;2022-12-18T14:21:47;3.70;99.90
63260;DHT22;49390;51.380;0.098;2022-12-18T14:24:21;3.80;99.90
63260;DHT22;49390;51.380;0.098;2022-12-18T14:26:53;3.80;99.90
63260;DHT22;49390;51.380;0.098;2022-12-18T14:29:27;3.80;99.90
63260;DHT22;49390;51.380;0.098;2022-12-18T14:32:19;3.80;99.90
63260;DHT22;49390;51.380;0.098;2022-12-18T14:34:49;3.80;99.90
63260;DHT22;49390;51.380;0.098;2022-12-18T14:37:23;3.90;99.90
63260;DHT22;49390;51.380;0.098;2022-12-18T14:40:04;3.90;99.90
63260;DHT22;49390;51.380;0.098;2022-12-18T14:42:40;3.90;99.90
63260;DHT22;49390;51.380;0.098;2022-12-18T14:45:41;3.90;99.90
63260;DHT22;49390;51.380;0.098;2022-12-18T14:48:41;4.00;99.90
63260;DHT22;49390;51.380;0.098;2022-12-18T14:51:15;4.00;99.90
63260;DHT22;49390;51.380;0.098;2022-12-18T14:53:55;3.90;99.90
63260;DHT22;49390;51.380;0.098;2022-12-18T14:56:34;4.00;99.90
63260;DHT22;49390;51.380;0.098;2022-12-18T14:59:23;4.00;99.90
63260;DHT22;49390;51.380;0.098;2022-12-18T15:02:03;4.00;99.90
63260;DHT22;49390;51.380;0.098;2022-12-18T15:04:40;4.00;99.90
63260;DHT22;49390;51.380;0.098;2022-12-18T15:10:07;4.10;99.90
63260;DHT22;49390;51.380;0.098;2022-12-18T15:12:41;4.10;99.90
63260;DHT22;49390;51.380;0.098;2022-12-18T15:21:22;4.20;99.90
63260;DHT22;49390;51.380;0.098;2022-12-18T15:24:36;4.20;99.90
63260;DHT22;49390;51.380;0.098;2022-12-18T15:27:36;4.20;99.90
63260;DHT22;49390;51.380;0.098;2022-12-18T15:30:33;4.20;99.90
63260;DHT22;49390;51.380;0.098;2022-12-18T15:33:42;4.20;99.90
63260;DHT22;49390;51.380;0.098;2022-12-18T15:36:30;4.30;99.90
63260;DHT22;49390;51.380;0.098;2022-12-18T15:39:18;4.30;99.90
63260;DHT22;49390;51.380;0.098;2022-12-18T15:42:00;4.30;99.90
63260;DHT22;49390;51.380;0.098;2022-12-18T15:44:58;4.40;99.90
63260;DHT22;49390;51.380;0.098;2022-12-18T15:47:30;4.40;99.90
63260;DHT22;49390;51.380;0.098;2022-12-18T15:50:16;4.40;99.90
63260;DHT22;49390;51.380;0.098;2022-12-18T15:52:53;4.50;99.90
63260;DHT22;49390;51.380;0.098;2022-12-18T15:55:45;4.50;99.90
63260;DHT22;49390;51.380;0.098;2022-12-18T15:58:41;4.60;99.90
63260;DHT22;49390;51.380;0.098;2022-12-18T16:01:44;4.60;99.90
63260;DHT22;49390;51.380;0.098;2022-12-18T16:04:36;4.60;99.90
63260;DHT22;49390;51.380;0.098;2022-12-18T16:07:08;4.60;99.90
63260;DHT22;49390;51.380;0.098;2022-12-18T16:09:59;4.70;99.90
63260;DHT22;49390;51.380;0.098;2022-12-18T16:13:04;4.80;99.90
63260;DHT22;49390;51.380;0.098;2022-12-18T16:15:57;4.80;99.90
63260;DHT22;49390;51.380;0.098;2022-12-18T16:18:46;4.90;99.90
63260;DHT22;49390;51.380;0.098;2022-12-18T16:21:51;4.90;99.90
63260;DHT22;49390;51.380;0.098;2022-12-18T16:24:41;5.00;99.90
63260;DHT22;49390;51.380;0.098;2022-12-18T16:27:39;5.00;99.90
63260;DHT22;49390;51.380;0.098;2022-12-18T16:30:21;5.10;99.90
63260;DHT22;49390;51.380;0.098;2022-12-18T16:33:32;5.10;99.90
63260;DHT22;49390;51.380;0.098;2022-12-18T16:36:18;5.20;99.90
63260;DHT22;49390;51.380;0.098;2022-12-18T16:39:10;5.30;99.90
63260;DHT22;49390;51.380;0.098;2022-12-18T16:41:47;5.30;99.90
63260;DHT22;49390;51.380;0.098;2022-12-18T16:44:24;5.40;99.90
63260;DHT22;49390;51.380;0.098;2022-12-18T16:46:54;5.40;99.90
63260;DHT22;49390;51.380;0.098;2022-12-18T16:49:24;5.50;99.90
63260;DHT22;49390;51.380;0.098;2022-12-18T16:52:00;5.50;99.90
63260;DHT22;49390;51.380;0.098;2022-12-18T16:54:29;5.60;99.90
63260;DHT22;49390;51.380;0.098;2022-12-18T16:57:05;5.70;99.90
63260;DHT22;49390;51.380;0.098;2022-12-18T16:59:37;5.70;99.90
63260;DHT22;49390;51.380;0.098;2022-12-18T17:02:17;5.80;99.90
63260;DHT22;49390;51.380;0.098;2022-12-18T17:04:56;5.80;99.90
63260;DHT22;49390;51.380;0.098;2022-12-18T17:07:27;5.90;99.90
63260;DHT22;49390;51.380;0.098;2022-12-18T17:09:59;5.90;99.90
63260;DHT22;49390;51.380;0.098;2022-12-18T17:12:27;6.00;99.90
63260;DHT22;49390;51.380;0.098;2022-12-18T17:15:00;6.00;99.90
63260;DHT22;49390;51.380;0.098;2022-12-18T17:17:28;6.00;99.90
63260;DHT22;49390;51.380;0.098;2022-12-18T17:19:58;6.10;99.90
63260;DHT22;49390;51.380;0.098;2022-12-18T17:22:27;6.10;99.90
63260;DHT22;49390;51.380;0.098;2022-12-18T17:25:23;6.20;99.90
63260;DHT22;49390;51.380;0.098;2022-12-18T17:27:52;6.20;99.90
63260;DHT22;49390;51.380;0.098;2022-12-18T17:30:24;6.20;99.90
63260;DHT22;49390;51.380;0.098;2022-12-18T17:32:55;6.20;99.90
63260;DHT22;49390;51.380;0.098;2022-12-18T17:35:27;6.30;99.90
63260;DHT22;49390;51.380;0.098;2022-12-18T17:41:32;6.60;99.90
63260;DHT22;49390;51.380;0.098;2022-12-18T17:44:16;6.30;99.90
63260;DHT22;49390;51.380;0.098;2022-12-18T17:47:21;6.40;99.90
63260;DHT22;49390;51.380;0.098;2022-12-18T17:50:26;6.40;99.90
63260;DHT22;49390;51.380;0.098;2022-12-18T17:53:02;6.40;99.90
63260;DHT22;49390;51.380;0.098;2022-12-18T17:55:34;6.40;99.90
63260;DHT22;49390;51.380;0.098;2022-12-18T17:58:04;6.50;99.90
63260;DHT22;49390;51.380;0.098;2022-12-18T18:00:39;6.50;99.90
63260;DHT22;49390;51.380;0.098;2022-12-18T18:03:08;6.50;99.90
63260;DHT22;49390;51.380;0.098;2022-12-18T18:05:39;6.50;99.90
63260;DHT22;49390;51.380;0.098;2022-12-18T18:08:14;6.50;99.90
63260;DHT22;49390;51.380;0.098;2022-12-18T18:10:48;6.60;99.90
63260;DHT22;49390;51.380;0.098;2022-12-18T18:13:26;6.60;99.90
63260;DHT22;49390;51.380;0.098;2022-12-18T18:16:21;6.60;99.90
63260;DHT22;49390;51.380;0.098;2022-12-18T18:18:56;6.60;99.90
63260;DHT22;49390;51.380;0.098;2022-12-18T18:21:31;6.60;99.90
63260;DHT22;49390;51.380;0.098;2022-12-18T18:24:11;6.60;99.90
63260;DHT22;49390;51.380;0.098;2022-12-18T18:26:48;6.70;99.90
63260;DHT22;49390;51.380;0.098;2022-12-18T18:29:37;6.60;99.90